sensor_id;sensor_type;location;lat;lon;timestamp;pressure;altitude;pressure_sealevel;temperature;humidity
37238;BME280;23129;49.662;8.448;2023-05-01T00:01:46;100723.38;;;14.53;nan
37238;BME280;23129;49.662;8.448;2023-05-01T00:04:16;100725.25;;;14.51;nan
37238;BME280;23129;49.662;8.448;2023-05-01T00:06:45;100732.44;;;14.46;nan
37238;BME280;23129;49.662;8.448;2023-05-01T00:09:14;100726.47;;;14.41;nan
37238;BME280;23129;49.662;8.448;2023-05-01T00:11:43;100716.97;;;14.37;nan
37238;BME280;23129;49.662;8.448;2023-05-01T00:14:12;100720.53;;;14.36;nan
37238;BME280;23129;49.662;8.448;2023-05-01T00:16:41;100717.94;;;14.34;nan
37238;BME280;23129;49.662;8.448;2023-05-01T00:19:09;100708.44;;;14.30;nan
37238;BME280;23129;49.662;8.448;2023-05-01T00:21:40;100704.94;;;14.30;nan
37238;BME280;23129;49.662;8.448;2023-05-01T00:24:08;100701.63;;;14.25;nan
37238;BME280;23129;49.662;8.448;2023-05-01T00:26:36;100702.59;;;14.22;nan
37238;BME280;23129;49.662;8.448;2023-05-01T00:29:05;100701.84;;;14.19;nan
37238;BME280;23129;49.662;8.448;2023-05-01T00:31:35;100695.78;;;14.16;nan
37238;BME280;23129;49.662;8.448;2023-05-01T00:34:03;100692.41;;;14.13;nan
37238;BME280;23129;49.662;8.448;2023-05-01T00:36:32;100691.59;;;14.11;nan
37238;BME280;23129;49.662;8.448;2023-05-01T00:39:02;100691.66;;;14.09;nan
37238;BME280;23129;49.662;8.448;2023-05-01T00:41:32;100682.97;;;14.06;nan
37238;BME280;23129;49.662;8.448;2023-05-01T00:44:02;100684.88;;;14.02;nan
37238;BME280;23129;49.662;8.448;2023-05-01T00:46:31;100680.56;;;14.00;nan
37238;BME280;23129;49.662;8.448;2023-05-01T00:49:02;100679.84;;;13.96;nan
37238;BME280;23129;49.662;8.448;2023-05-01T00:51:31;100674.69;;;13.93;nan
37238;BME280;23129;49.662;8.448;2023-05-01T00:54:02;100674.81;;;13.90;nan
37238;BME280;23129;49.662;8.448;2023-05-01T00:56:31;100670.56;;;13.86;nan
37238;BME280;23129;49.662;8.448;2023-05-01T00:58:59;100660.91;;;13.85;nan
37238;BME280;23129;49.662;8.448;2023-05-01T01:01:28;100662.78;;;13.83;nan
37238;BME280;23129;49.662;8.448;2023-05-01T01:03:57;100661.97;;;13.81;nan
37238;BME280;23129;49.662;8.448;2023-05-01T01:06:33;100657.50;;;13.83;nan
37238;BME280;23129;49.662;8.448;2023-05-01T01:09:18;100652.34;;;13.80;nan
37238;BME280;23129;49.662;8.448;2023-05-01T01:11:58;100650.72;;;13.76;nan
37238;BME280;23129;49.662;8.448;2023-05-01T01:14:34;100645.56;;;13.73;nan
37238;BME280;23129;49.662;8.448;2023-05-01T01:17:12;100643.00;;;13.71;nan
37238;BME280;23129;49.662;8.448;2023-05-01T01:20:29;100637.72;;;13.71;nan
37238;BME280;23129;49.662;8.448;2023-05-01T01:23:23;100639.91;;;13.60;nan
37238;BME280;23129;49.662;8.448;2023-05-01T01:26:26;100640.88;;;13.57;nan
37238;BME280;23129;49.662;8.448;2023-05-01T01:29:16;100648.75;;;13.59;nan
37238;BME280;23129;49.662;8.448;2023-05-01T01:32:02;100640.59;;;13.41;nan
37238;BME280;23129;49.662;8.448;2023-05-01T01:34:38;100647.03;;;13.33;nan
37238;BME280;23129;49.662;8.448;2023-05-01T01:37:14;100642.00;;;13.27;nan
37238;BME280;23129;49.662;8.448;2023-05-01T01:39:51;100643.00;;;13.22;nan
37238;BME280;23129;49.662;8.448;2023-05-01T01:42:30;100635.22;;;13.19;nan
37238;BME280;23129;49.662;8.448;2023-05-01T01:45:22;100635.44;;;13.13;nan
37238;BME280;23129;49.662;8.448;2023-05-01T01:47:54;100635.63;;;13.07;nan
37238;BME280;23129;49.662;8.448;2023-05-01T01:50:26;100631.28;;;13.06;nan
37238;BME280;23129;49.662;8.448;2023-05-01T01:52:57;100635.84;;;13.01;nan
37238;BME280;23129;49.662;8.448;2023-05-01T01:55:30;100640.31;;;12.99;nan
37238;BME280;23129;49.662;8.448;2023-05-01T01:58:02;100629.81;;;12.97;nan
37238;BME280;23129;49.662;8.448;2023-05-01T02:00:32;100634.34;;;12.94;nan
37238;BME280;23129;49.662;8.448;2023-05-01T02:03:03;100636.22;;;12.90;nan
37238;BME280;23129;49.662;8.448;2023-05-01T02:05:35;100639.78;;;12.89;nan
37238;BME280;23129;49.662;8.448;2023-05-01T02:08:06;100630.22;;;12.87;nan
37238;BME280;23129;49.662;8.448;2023-05-01T02:10:36;100629.50;;;12.82;nan
37238;BME280;23129;49.662;8.448;2023-05-01T02:13:06;100637.50;;;12.78;nan
37238;BME280;23129;49.662;8.448;2023-05-01T02:15:37;100630.53;;;12.77;nan
37238;BME280;23129;49.662;8.448;2023-05-01T02:18:08;100631.53;;;12.73;nan
37238;BME280;23129;49.662;8.448;2023-05-01T02:20:40;100633.25;;;12.74;nan
37238;BME280;23129;49.662;8.448;2023-05-01T02:23:10;100633.38;;;12.71;nan
37238;BME280;23129;49.662;8.448;2023-05-01T02:25:40;100634.22;;;12.72;nan
37238;BME280;23129;49.662;8.448;2023-05-01T02:28:12;100634.16;;;12.73;nan
37238;BME280;23129;49.662;8.448;2023-05-01T02:30:42;100635.19;;;12.69;nan
37238;BME280;23129;49.662;8.448;2023-05-01T02:33:13;100625.47;;;12.71;nan
37238;BME280;23129;49.662;8.448;2023-05-01T02:35:45;100623.63;;;12.73;nan
37238;BME280;23129;49.662;8.448;2023-05-01T02:38:17;100627.13;;;12.74;nan
37238;BME280;23129;49.662;8.448;2023-05-01T02:40:50;100627.81;;;12.79;nan
37238;BME280;23129;49.662;8.448;2023-05-01T02:43:20;100619.06;;;12.78;nan
37238;BME280;23129;49.662;8.448;2023-05-01T02:45:50;100621.63;;;12.80;nan
37238;BME280;23129;49.662;8.448;2023-05-01T02:48:24;100625.09;;;12.82;nan
37238;BME280;23129;49.662;8.448;2023-05-01T02:50:56;100618.13;;;12.81;nan
37238;BME280;23129;49.662;8.448;2023-05-01T02:53:25;100619.00;;;12.80;nan
37238;BME280;23129;49.662;8.448;2023-05-01T02:56:02;100618.13;;;12.81;nan
37238;BME280;23129;49.662;8.448;2023-05-01T02:58:32;100620.78;;;12.79;nan
37238;BME280;23129;49.662;8.448;2023-05-01T03:01:01;100618.31;;;12.75;nan
37238;BME280;23129;49.662;8.448;2023-05-01T03:03:30;100616.66;;;12.72;nan
37238;BME280;23129;49.662;8.448;2023-05-01T03:06:00;100615.84;;;12.70;nan
37238;BME280;23129;49.662;8.448;2023-05-01T03:08:30;100619.50;;;12.66;nan
37238;BME280;23129;49.662;8.448;2023-05-01T03:10:58;100619.59;;;12.63;nan
37238;BME280;23129;49.662;8.448;2023-05-01T03:13:27;100614.44;;;12.60;nan
37238;BME280;23129;49.662;8.448;2023-05-01T03:15:55;100614.53;;;12.57;nan
37238;BME280;23129;49.662;8.448;2023-05-01T03:18:25;100610.25;;;12.54;nan
37238;BME280;23129;49.662;8.448;2023-05-01T03:20:54;100608.63;;;12.50;nan
37238;BME280;23129;49.662;8.448;2023-05-01T03:23:26;100607.00;;;12.46;nan
37238;BME280;23129;49.662;8.448;2023-05-01T03:25:55;100606.25;;;12.43;nan
37238;BME280;23129;49.662;8.448;2023-05-01T03:28:23;100603.81;;;12.37;nan
37238;BME280;23129;49.662;8.448;2023-05-01T03:30:52;100599.56;;;12.32;nan
37238;BME280;23129;49.662;8.448;2023-05-01T03:33:21;100603.94;;;12.32;nan
37238;BME280;23129;49.662;8.448;2023-05-01T03:35:58;100601.28;;;12.33;nan
37238;BME280;23129;49.662;8.448;2023-05-01T03:38:30;100593.59;;;12.27;nan
37238;BME280;23129;49.662;8.448;2023-05-01T03:41:10;100598.88;;;12.26;nan
37238;BME280;23129;49.662;8.448;2023-05-01T03:43:58;100598.13;;;12.22;nan
37238;BME280;23129;49.662;8.448;2023-05-01T03:46:33;100600.03;;;12.17;nan
37238;BME280;23129;49.662;8.448;2023-05-01T03:49:03;100601.88;;;12.15;nan
37238;BME280;23129;49.662;8.448;2023-05-01T03:51:38;100596.72;;;12.12;nan
37238;BME280;23129;49.662;8.448;2023-05-01T03:54:08;100592.31;;;12.13;nan
37238;BME280;23129;49.662;8.448;2023-05-01T03:56:52;100588.47;;;12.23;nan
37238;BME280;23129;49.662;8.448;2023-05-01T03:59:21;100587.28;;;12.05;nan
37238;BME280;23129;49.662;8.448;2023-05-01T04:01:49;100589.91;;;12.05;nan
37238;BME280;23129;49.662;8.448;2023-05-01T04:04:18;100589.88;;;12.06;nan
37238;BME280;23129;49.662;8.448;2023-05-01T04:06:54;100588.97;;;12.07;nan
37238;BME280;23129;49.662;8.448;2023-05-01T04:09:24;100588.00;;;12.10;nan
37238;BME280;23129;49.662;8.448;2023-05-01T04:11:53;100584.47;;;12.11;nan
37238;BME280;23129;49.662;8.448;2023-05-01T04:14:22;100591.47;;;12.12;nan
37238;BME280;23129;49.662;8.448;2023-05-01T04:16:51;100591.47;;;12.12;nan
37238;BME280;23129;49.662;8.448;2023-05-01T04:19:20;100592.31;;;12.13;nan
37238;BME280;23129;49.662;8.448;2023-05-01T04:21:52;100589.63;;;12.14;nan
37238;BME280;23129;49.662;8.448;2023-05-01T04:24:21;100591.34;;;12.15;nan
37238;BME280;23129;49.662;8.448;2023-05-01T04:26:51;100597.47;;;12.16;nan
37238;BME280;23129;49.662;8.448;2023-05-01T04:29:20;100586.09;;;12.15;nan
37238;BME280;23129;49.662;8.448;2023-05-01T04:31:49;100586.03;;;12.17;nan
37238;BME280;23129;49.662;8.448;2023-05-01T04:34:17;100587.72;;;12.19;nan
37238;BME280;23129;49.662;8.448;2023-05-01T04:36:46;100594.69;;;12.20;nan
37238;BME280;23129;49.662;8.448;2023-05-01T04:39:15;100597.28;;;12.22;nan
37238;BME280;23129;49.662;8.448;2023-05-01T04:41:44;100585.91;;;12.21;nan
37238;BME280;23129;49.662;8.448;2023-05-01T04:44:14;100591.06;;;12.24;nan
37238;BME280;23129;49.662;8.448;2023-05-01T04:46:42;100598.88;;;12.26;nan
37238;BME280;23129;49.662;8.448;2023-05-01T04:49:11;100597.03;;;12.29;nan
37238;BME280;23129;49.662;8.448;2023-05-01T04:51:40;100586.34;;;12.34;nan
37238;BME280;23129;49.662;8.448;2023-05-01T04:54:12;100587.09;;;12.38;nan
37238;BME280;23129;49.662;8.448;2023-05-01T04:56:41;100589.69;;;12.39;nan
37238;BME280;23129;49.662;8.448;2023-05-01T04:59:10;100588.78;;;12.40;nan
37238;BME280;23129;49.662;8.448;2023-05-01T05:01:40;100592.16;;;12.44;nan
37238;BME280;23129;49.662;8.448;2023-05-01T05:04:10;100592.16;;;12.44;nan
37238;BME280;23129;49.662;8.448;2023-05-01T05:06:39;100588.75;;;12.42;nan
37238;BME280;23129;49.662;8.448;2023-05-01T05:09:14;100602.78;;;12.41;nan
37238;BME280;23129;49.662;8.448;2023-05-01T05:11:45;100599.25;;;12.42;nan
37238;BME280;23129;49.662;8.448;2023-05-01T05:14:20;100595.72;;;12.43;nan
37238;BME280;23129;49.662;8.448;2023-05-01T05:16:50;100592.06;;;12.47;nan
37238;BME280;23129;49.662;8.448;2023-05-01T05:19:19;100590.25;;;12.49;nan
37238;BME280;23129;49.662;8.448;2023-05-01T05:21:48;100587.63;;;12.49;nan
37238;BME280;23129;49.662;8.448;2023-05-01T05:24:17;100591.84;;;12.53;nan
37238;BME280;23129;49.662;8.448;2023-05-01T05:26:45;100590.78;;;12.59;nan
37238;BME280;23129;49.662;8.448;2023-05-01T05:29:15;100592.34;;;12.64;nan
37238;BME280;23129;49.662;8.448;2023-05-01T05:31:44;100583.41;;;12.70;nan
37238;BME280;23129;49.662;8.448;2023-05-01T05:34:15;100596.31;;;12.77;nan
37238;BME280;23129;49.662;8.448;2023-05-01T05:36:46;100589.09;;;12.83;nan
37238;BME280;23129;49.662;8.448;2023-05-01T05:39:19;100596.78;;;12.89;nan
37238;BME280;23129;49.662;8.448;2023-05-01T05:41:49;100594.00;;;12.93;nan
37238;BME280;23129;49.662;8.448;2023-05-01T05:44:20;100594.63;;;13.00;nan
37238;BME280;23129;49.662;8.448;2023-05-01T05:46:49;100590.06;;;13.05;nan
37238;BME280;23129;49.662;8.448;2023-05-01T05:49:28;100592.28;;;13.16;nan
37238;BME280;23129;49.662;8.448;2023-05-01T05:51:56;100597.31;;;13.23;nan
37238;BME280;23129;49.662;8.448;2023-05-01T05:54:25;100589.19;;;13.30;nan
37238;BME280;23129;49.662;8.448;2023-05-01T05:56:54;100594.31;;;13.34;nan
37238;BME280;23129;49.662;8.448;2023-05-01T05:59:23;100595.84;;;13.40;nan
37238;BME280;23129;49.662;8.448;2023-05-01T06:01:51;100591.16;;;13.48;nan
37238;BME280;23129;49.662;8.448;2023-05-01T06:04:20;100587.50;;;13.52;nan
37238;BME280;23129;49.662;8.448;2023-05-01T06:06:51;100595.19;;;13.58;nan
37238;BME280;23129;49.662;8.448;2023-05-01T06:09:20;100587.94;;;13.63;nan
37238;BME280;23129;49.662;8.448;2023-05-01T06:11:48;100588.66;;;13.67;nan
37238;BME280;23129;49.662;8.448;2023-05-01T06:14:17;100580.75;;;13.67;nan
37238;BME280;23129;49.662;8.448;2023-05-01T06:16:46;100583.19;;;13.73;nan
37238;BME280;23129;49.662;8.448;2023-05-01T06:19:15;100580.22;;;13.81;nan
37238;BME280;23129;49.662;8.448;2023-05-01T06:21:45;100574.59;;;13.90;nan
37238;BME280;23129;49.662;8.448;2023-05-01T06:24:15;100570.56;;;14.03;nan
37238;BME280;23129;49.662;8.448;2023-05-01T06:26:49;100570.97;;;14.14;nan
37238;BME280;23129;49.662;8.448;2023-05-01T06:29:18;100569.56;;;14.28;nan
37238;BME280;23129;49.662;8.448;2023-05-01T06:31:46;100570.13;;;14.36;nan
37238;BME280;23129;49.662;8.448;2023-05-01T06:34:15;100562.72;;;14.44;nan
37238;BME280;23129;49.662;8.448;2023-05-01T06:36:49;100564.16;;;14.53;nan
37238;BME280;23129;49.662;8.448;2023-05-01T06:39:19;100561.06;;;14.64;nan
37238;BME280;23129;49.662;8.448;2023-05-01T06:41:48;100564.34;;;14.69;nan
37238;BME280;23129;49.662;8.448;2023-05-01T06:44:27;100565.88;;;14.74;nan
37238;BME280;23129;49.662;8.448;2023-05-01T06:46:57;100575.97;;;14.85;nan
37238;BME280;23129;49.662;8.448;2023-05-01T06:49:28;100577.41;;;14.92;nan
37238;BME280;23129;49.662;8.448;2023-05-01T06:51:56;100569.06;;;15.01;nan
37238;BME280;23129;49.662;8.448;2023-05-01T06:54:26;100563.28;;;15.14;nan
37238;BME280;23129;49.662;8.448;2023-05-01T06:56:55;100568.28;;;15.20;nan
37238;BME280;23129;49.662;8.448;2023-05-01T06:59:24;100565.38;;;15.26;nan
37238;BME280;23129;49.662;8.448;2023-05-01T07:01:52;100570.22;;;15.35;nan
37238;BME280;23129;49.662;8.448;2023-05-01T07:04:21;100562.63;;;15.46;nan
37238;BME280;23129;49.662;8.448;2023-05-01T07:06:50;100566.66;;;15.55;nan
37238;BME280;23129;49.662;8.448;2023-05-01T07:09:19;100564.34;;;15.68;nan
37238;BME280;23129;49.662;8.448;2023-05-01T07:11:50;100573.09;;;15.87;nan
37238;BME280;23129;49.662;8.448;2023-05-01T07:14:19;100568.50;;;16.10;nan
37238;BME280;23129;49.662;8.448;2023-05-01T07:16:48;100572.13;;;16.43;nan
37238;BME280;23129;49.662;8.448;2023-05-01T07:19:17;100571.41;;;16.75;nan
37238;BME280;23129;49.662;8.448;2023-05-01T07:21:45;100568.28;;;17.01;nan
37238;BME280;23129;49.662;8.448;2023-05-01T07:24:14;100562.41;;;17.29;nan
37238;BME280;23129;49.662;8.448;2023-05-01T07:26:43;100569.88;;;17.54;nan
37238;BME280;23129;49.662;8.448;2023-05-01T07:29:14;100564.56;;;17.70;nan
37238;BME280;23129;49.662;8.448;2023-05-01T07:31:44;100562.50;;;17.75;nan
37238;BME280;23129;49.662;8.448;2023-05-01T07:34:13;100560.56;;;17.79;nan
37238;BME280;23129;49.662;8.448;2023-05-01T07:36:43;100567.50;;;17.82;nan
37238;BME280;23129;49.662;8.448;2023-05-01T07:39:12;100565.03;;;17.78;nan
37238;BME280;23129;49.662;8.448;2023-05-01T07:41:41;100552.63;;;17.79;nan
37238;BME280;23129;49.662;8.448;2023-05-01T07:44:11;100552.44;;;17.82;nan
37238;BME280;23129;49.662;8.448;2023-05-01T07:46:40;100562.97;;;17.84;nan
37238;BME280;23129;49.662;8.448;2023-05-01T07:49:09;100560.31;;;17.84;nan
37238;BME280;23129;49.662;8.448;2023-05-01T07:51:38;100559.38;;;17.85;nan
37238;BME280;23129;49.662;8.448;2023-05-01T07:54:06;100558.53;;;17.84;nan
37238;BME280;23129;49.662;8.448;2023-05-01T07:56:35;100560.22;;;17.85;nan
37238;BME280;23129;49.662;8.448;2023-05-01T07:59:04;100556.72;;;17.85;nan
37238;BME280;23129;49.662;8.448;2023-05-01T08:01:35;100556.47;;;17.89;nan
37238;BME280;23129;49.662;8.448;2023-05-01T08:04:04;100549.59;;;17.85;nan
37238;BME280;23129;49.662;8.448;2023-05-01T08:06:33;100555.03;;;17.84;nan
37238;BME280;23129;49.662;8.448;2023-05-01T08:09:05;100553.81;;;17.89;nan
37238;BME280;23129;49.662;8.448;2023-05-01T08:12:02;100552.53;;;17.96;nan
37238;BME280;23129;49.662;8.448;2023-05-01T08:14:31;100561.09;;;18.01;nan
37238;BME280;23129;49.662;8.448;2023-05-01T08:17:00;100558.06;;;18.08;nan
37238;BME280;23129;49.662;8.448;2023-05-01T08:19:29;100561.41;;;18.11;nan
37238;BME280;23129;49.662;8.448;2023-05-01T08:21:58;100552.13;;;18.18;nan
37238;BME280;23129;49.662;8.448;2023-05-01T08:24:27;100556.84;;;18.29;nan
37238;BME280;23129;49.662;8.448;2023-05-01T08:26:55;100555.25;;;18.41;nan
37238;BME280;23129;49.662;8.448;2023-05-01T08:29:25;100550.06;;;18.54;nan
37238;BME280;23129;49.662;8.448;2023-05-01T08:31:54;100544.13;;;18.64;nan
37238;BME280;23129;49.662;8.448;2023-05-01T08:34:25;100547.03;;;18.76;nan
37238;BME280;23129;49.662;8.448;2023-05-01T08:36:53;100553.31;;;18.89;nan
37238;BME280;23129;49.662;8.448;2023-05-01T08:39:23;100550.28;;;19.09;nan
37238;BME280;23129;49.662;8.448;2023-05-01T08:41:52;100556.28;;;19.42;nan
37238;BME280;23129;49.662;8.448;2023-05-01T08:44:25;100549.66;;;19.76;nan
37238;BME280;23129;49.662;8.448;2023-05-01T08:47:06;100558.53;;;20.03;nan
37238;BME280;23129;49.662;8.448;2023-05-01T08:49:39;100550.66;;;20.02;nan
37238;BME280;23129;49.662;8.448;2023-05-01T08:52:10;100554.00;;;19.91;nan
37238;BME280;23129;49.662;8.448;2023-05-01T08:54:42;100553.19;;;20.03;nan
37238;BME280;23129;49.662;8.448;2023-05-01T08:57:11;100553.63;;;20.10;nan
37238;BME280;23129;49.662;8.448;2023-05-01T08:59:40;100551.97;;;19.95;nan
37238;BME280;23129;49.662;8.448;2023-05-01T09:02:09;100559.53;;;19.88;nan
37238;BME280;23129;49.662;8.448;2023-05-01T09:04:40;100554.41;;;19.85;nan
37238;BME280;23129;49.662;8.448;2023-05-01T09:07:09;100553.09;;;19.78;nan
37238;BME280;23129;49.662;8.448;2023-05-01T09:09:38;100553.09;;;19.78;nan
37238;BME280;23129;49.662;8.448;2023-05-01T09:12:13;100547.38;;;19.84;nan
37238;BME280;23129;49.662;8.448;2023-05-01T09:14:45;100551.84;;;19.83;nan
37238;BME280;23129;49.662;8.448;2023-05-01T09:17:15;100550.03;;;19.84;nan
37238;BME280;23129;49.662;8.448;2023-05-01T09:19:45;100550.50;;;19.91;nan
37238;BME280;23129;49.662;8.448;2023-05-01T09:22:14;100549.88;;;20.00;nan
37238;BME280;23129;49.662;8.448;2023-05-01T09:24:43;100549.03;;;20.26;nan
37238;BME280;23129;49.662;8.448;2023-05-01T09:27:13;100542.88;;;20.51;nan
37238;BME280;23129;49.662;8.448;2023-05-01T09:29:43;100543.16;;;20.74;nan
37238;BME280;23129;49.662;8.448;2023-05-01T09:32:13;100533.16;;;21.03;nan
37238;BME280;23129;49.662;8.448;2023-05-01T09:34:44;100534.31;;;21.37;nan
37238;BME280;23129;49.662;8.448;2023-05-01T09:37:24;100530.94;;;21.59;nan
37238;BME280;23129;49.662;8.448;2023-05-01T09:40:04;100534.91;;;21.54;nan
37238;BME280;23129;49.662;8.448;2023-05-01T09:42:34;100536.09;;;21.50;nan
37238;BME280;23129;49.662;8.448;2023-05-01T09:45:10;100527.50;;;21.70;nan
37238;BME280;23129;49.662;8.448;2023-05-01T09:47:39;100532.09;;;22.16;nan
37238;BME280;23129;49.662;8.448;2023-05-01T09:50:29;100519.13;;;22.58;nan
37238;BME280;23129;49.662;8.448;2023-05-01T09:53:00;100526.91;;;22.61;nan
37238;BME280;23129;49.662;8.448;2023-05-01T09:55:31;100517.19;;;22.60;nan
37238;BME280;23129;49.662;8.448;2023-05-01T09:57:59;100523.75;;;22.67;nan
37238;BME280;23129;49.662;8.448;2023-05-01T10:00:28;100522.59;;;22.83;nan
37238;BME280;23129;49.662;8.448;2023-05-01T10:02:57;100520.41;;;22.88;nan
37238;BME280;23129;49.662;8.448;2023-05-01T10:05:28;100515.34;;;23.07;nan
37238;BME280;23129;49.662;8.448;2023-05-01T10:08:09;100512.38;;;23.55;nan
37238;BME280;23129;49.662;8.448;2023-05-01T10:10:41;100513.06;;;23.91;nan
37238;BME280;23129;49.662;8.448;2023-05-01T10:13:14;100504.59;;;24.28;nan
37238;BME280;23129;49.662;8.448;2023-05-01T10:15:43;100509.91;;;24.39;nan
37238;BME280;23129;49.662;8.448;2023-05-01T10:18:13;100512.56;;;24.50;nan
37238;BME280;23129;49.662;8.448;2023-05-01T10:20:44;100517.78;;;24.73;nan
37238;BME280;23129;49.662;8.448;2023-05-01T10:23:13;100519.06;;;24.99;nan
37238;BME280;23129;49.662;8.448;2023-05-01T10:25:41;100513.63;;;25.11;nan
37238;BME280;23129;49.662;8.448;2023-05-01T10:28:11;100513.00;;;25.28;nan
37238;BME280;23129;49.662;8.448;2023-05-01T10:30:41;100513.50;;;25.53;nan
37238;BME280;23129;49.662;8.448;2023-05-01T10:33:12;100509.44;;;25.68;nan
37238;BME280;23129;49.662;8.448;2023-05-01T10:35:47;100509.16;;;25.81;nan
37238;BME280;23129;49.662;8.448;2023-05-01T10:38:22;100509.66;;;26.15;nan
37238;BME280;23129;49.662;8.448;2023-05-01T10:40:53;100512.34;;;26.15;nan
37238;BME280;23129;49.662;8.448;2023-05-01T10:43:24;100515.88;;;26.06;nan
37238;BME280;23129;49.662;8.448;2023-05-01T10:46:35;100510.50;;;26.06;nan
37238;BME280;23129;49.662;8.448;2023-05-01T10:49:03;100509.34;;;25.99;nan
37238;BME280;23129;49.662;8.448;2023-05-01T10:51:33;100508.63;;;25.96;nan
37238;BME280;23129;49.662;8.448;2023-05-01T10:54:21;100507.81;;;26.06;nan
37238;BME280;23129;49.662;8.448;2023-05-01T10:56:51;100499.00;;;25.84;nan
37238;BME280;23129;49.662;8.448;2023-05-01T10:59:20;100506.28;;;25.63;nan
37238;BME280;23129;49.662;8.448;2023-05-01T11:01:49;100496.16;;;25.76;nan
37238;BME280;23129;49.662;8.448;2023-05-01T11:04:47;100485.44;;;26.15;nan
37238;BME280;23129;49.662;8.448;2023-05-01T11:07:20;100481.19;;;26.22;nan
37238;BME280;23129;49.662;8.448;2023-05-01T11:09:50;100494.50;;;26.33;nan
37238;BME280;23129;49.662;8.448;2023-05-01T11:12:48;100491.13;;;26.12;nan
37238;BME280;23129;49.662;8.448;2023-05-01T11:15:31;100484.03;;;25.82;nan
37238;BME280;23129;49.662;8.448;2023-05-01T11:18:00;100490.34;;;25.71;nan
37238;BME280;23129;49.662;8.448;2023-05-01T11:20:49;100486.03;;;26.09;nan
37238;BME280;23129;49.662;8.448;2023-05-01T11:23:22;100485.44;;;26.54;nan
37238;BME280;23129;49.662;8.448;2023-05-01T11:26:02;100476.72;;;27.07;nan
37238;BME280;23129;49.662;8.448;2023-05-01T11:28:33;100475.94;;;27.52;nan
37238;BME280;23129;49.662;8.448;2023-05-01T11:31:02;100469.09;;;28.03;nan
37238;BME280;23129;49.662;8.448;2023-05-01T11:33:30;100471.06;;;28.63;nan
37238;BME280;23129;49.662;8.448;2023-05-01T11:36:01;100466.41;;;29.07;nan
37238;BME280;23129;49.662;8.448;2023-05-01T11:38:31;100464.97;;;29.21;nan
37238;BME280;23129;49.662;8.448;2023-05-01T11:41:01;100468.88;;;29.27;nan
37238;BME280;23129;49.662;8.448;2023-05-01T11:43:31;100475.91;;;29.11;nan
37238;BME280;23129;49.662;8.448;2023-05-01T11:46:00;100470.31;;;28.79;nan
37238;BME280;23129;49.662;8.448;2023-05-01T11:48:31;100474.97;;;28.68;nan
37238;BME280;23129;49.662;8.448;2023-05-01T11:51:00;100453.28;;;28.52;nan
37238;BME280;23129;49.662;8.448;2023-05-01T11:53:28;100461.59;;;28.59;nan
37238;BME280;23129;49.662;8.448;2023-05-01T11:55:59;100457.91;;;28.94;nan
37238;BME280;23129;49.662;8.448;2023-05-01T11:58:32;100450.72;;;29.03;nan
37238;BME280;23129;49.662;8.448;2023-05-01T12:01:02;100462.28;;;28.95;nan
37238;BME280;23129;49.662;8.448;2023-05-01T12:03:42;100464.81;;;28.62;nan
37238;BME280;23129;49.662;8.448;2023-05-01T12:06:12;100454.50;;;28.14;nan
37238;BME280;23129;49.662;8.448;2023-05-01T12:08:43;100444.44;;;27.98;nan
37238;BME280;23129;49.662;8.448;2023-05-01T12:11:13;100456.16;;;27.89;nan
37238;BME280;23129;49.662;8.448;2023-05-01T12:13:42;100451.50;;;27.81;nan
37238;BME280;23129;49.662;8.448;2023-05-01T12:16:14;100454.78;;;27.75;nan
37238;BME280;23129;49.662;8.448;2023-05-01T12:18:43;100444.84;;;27.75;nan
37238;BME280;23129;49.662;8.448;2023-05-01T12:21:14;100446.28;;;27.97;nan
37238;BME280;23129;49.662;8.448;2023-05-01T12:23:44;100439.47;;;28.11;nan
37238;BME280;23129;49.662;8.448;2023-05-01T12:26:18;100447.94;;;28.16;nan
37238;BME280;23129;49.662;8.448;2023-05-01T12:29:00;100446.41;;;27.96;nan
37238;BME280;23129;49.662;8.448;2023-05-01T12:31:29;100450.56;;;27.72;nan
37238;BME280;23129;49.662;8.448;2023-05-01T12:34:00;100449.38;;;27.57;nan
37238;BME280;23129;49.662;8.448;2023-05-01T12:36:30;100441.88;;;27.33;nan
37238;BME280;23129;49.662;8.448;2023-05-01T12:39:01;100444.81;;;27.40;nan
37238;BME280;23129;49.662;8.448;2023-05-01T12:41:41;100443.28;;;27.55;nan
37238;BME280;23129;49.662;8.448;2023-05-01T12:44:22;100448.53;;;27.57;nan
37238;BME280;23129;49.662;8.448;2023-05-01T12:46:57;100452.84;;;27.31;nan
37238;BME280;23129;49.662;8.448;2023-05-01T12:49:28;100446.09;;;27.18;nan
37238;BME280;23129;49.662;8.448;2023-05-01T12:51:58;100437.91;;;27.55;nan
37238;BME280;23129;49.662;8.448;2023-05-01T12:54:28;100440.38;;;27.66;nan
37238;BME280;23129;49.662;8.448;2023-05-01T12:57:07;100438.69;;;27.65;nan
37238;BME280;23129;49.662;8.448;2023-05-01T12:59:37;100436.03;;;27.83;nan
37238;BME280;23129;49.662;8.448;2023-05-01T13:02:07;100434.63;;;27.97;nan
37238;BME280;23129;49.662;8.448;2023-05-01T13:04:39;100431.31;;;28.03;nan
37238;BME280;23129;49.662;8.448;2023-05-01T13:07:11;100429.19;;;28.15;nan
37238;BME280;23129;49.662;8.448;2023-05-01T13:09:51;100432.28;;;28.20;nan
37238;BME280;23129;49.662;8.448;2023-05-01T13:12:21;100437.41;;;27.87;nan
37238;BME280;23129;49.662;8.448;2023-05-01T13:14:51;100438.16;;;27.44;nan
37238;BME280;23129;49.662;8.448;2023-05-01T13:17:25;100428.53;;;27.14;nan
37238;BME280;23129;49.662;8.448;2023-05-01T13:19:54;100434.34;;;26.81;nan
37238;BME280;23129;49.662;8.448;2023-05-01T13:22:34;100430.31;;;26.58;nan
37238;BME280;23129;49.662;8.448;2023-05-01T13:25:13;100432.50;;;26.15;nan
37238;BME280;23129;49.662;8.448;2023-05-01T13:27:48;100428.25;;;25.74;nan
37238;BME280;23129;49.662;8.448;2023-05-01T13:30:20;100430.50;;;25.49;nan
37238;BME280;23129;49.662;8.448;2023-05-01T13:32:49;100438.41;;;25.32;nan
37238;BME280;23129;49.662;8.448;2023-05-01T13:35:25;100435.53;;;25.23;nan